Time;durP1;ratioP1;P1;durP2;ratioP2;P2;SDS_P1;SDS_P2;PMS_P1;PMS_P2;Temp;Humidity;BMP_temperature;BMP_pressure;BME280_temperature;BME280_humidity;BME280_pressure;Samples;Min_cycle;Max_cycle;Signal;HPM_P1;HPM_P2
2022/07/01 00:01:50;;;;;;;1.45;0.47;;;;;;;15.03;100.00;101412.63;5013957;28;20053;-34
2022/07/01 00:04:18;;;;;;;2.10;0.60;;;;;;;15.05;100.00;101419.59;5009092;28;20465;-29
2022/07/01 00:06:45;;;;;;;2.00;0.60;;;;;;;15.09;100.00;101411.34;5013373;28;20053;-35
2022/07/01 00:09:15;;;;;;;2.72;0.60;;;;;;;15.12;100.00;101391.06;5013468;28;20148;-26
2022/07/01 00:11:43;;;;;;;3.28;0.70;;;;;;;15.14;100.00;101391.56;5013925;28;20498;-35
2022/07/01 00:14:11;;;;;;;3.63;0.93;;;;;;;15.18;100.00;101383.34;5012957;28;20052;-27
2022/07/01 00:16:38;;;;;;;2.63;0.65;;;;;;;15.20;100.00;101383.81;5014069;28;20759;-26
2022/07/01 00:19:06;;;;;;;3.15;0.80;;;;;;;15.21;100.00;101369.44;5012974;28;20049;-26
2022/07/01 00:21:34;;;;;;;2.75;0.65;;;;;;;15.22;100.00;101362.69;5013014;28;20046;-29
2022/07/01 00:24:02;;;;;;;3.20;0.60;;;;;;;15.22;100.00;101359.88;5013397;28;20076;-26
2022/07/01 00:26:31;;;;;;;3.35;0.70;;;;;;;15.23;100.00;101363.50;5013746;28;20053;-27
2022/07/01 00:29:00;;;;;;;2.28;0.70;;;;;;;15.23;100.00;101371.94;5012669;28;20054;-29
2022/07/01 00:31:27;;;;;;;1.92;0.50;;;;;;;15.25;100.00;101378.09;5013576;28;20487;-30
2022/07/01 00:33:55;;;;;;;3.13;0.65;;;;;;;15.27;100.00;101378.59;5013061;28;20077;-31
2022/07/01 00:36:23;;;;;;;2.55;0.73;;;;;;;15.27;100.00;101373.81;5013229;28;20119;-25
2022/07/01 00:38:57;;;;;;;2.08;0.70;;;;;;;15.27;100.00;101373.81;5013504;28;20072;-28
2022/07/01 00:41:25;;;;;;;2.78;0.63;;;;;;;15.28;100.00;101374.66;5013228;28;20085;-32
2022/07/01 00:43:54;;;;;;;2.30;0.52;;;;;;;15.30;100.00;101359.13;5012576;28;20255;-24
2022/07/01 00:46:24;;;;;;;3.22;0.55;;;;;;;15.28;100.00;101347.34;5013193;28;20058;-28
2022/07/01 00:48:54;;;;;;;4.25;0.68;;;;;;;15.27;100.00;101348.50;5012310;28;20518;-26
2022/07/01 00:51:23;;;;;;;2.45;0.60;;;;;;;15.26;100.00;101341.22;5013096;28;20057;-26
2022/07/01 00:53:51;;;;;;;3.33;0.68;;;;;;;15.27;100.00;101353.31;5013289;28;20046;-33
2022/07/01 00:56:20;;;;;;;2.50;0.57;;;;;;;15.28;100.00;101340.91;5012010;28;20050;-30
2022/07/01 00:58:48;;;;;;;2.92;0.70;;;;;;;15.29;100.00;101345.38;5012914;28;20060;-30
2022/07/01 01:01:17;;;;;;;2.58;0.55;;;;;;;15.27;100.00;101354.13;5012706;28;20181;-28
2022/07/01 01:03:45;;;;;;;4.40;0.70;;;;;;;15.30;100.00;101344.22;5012421;28;20090;-29
2022/07/01 01:06:13;;;;;;;3.00;0.80;;;;;;;15.28;100.00;101352.16;5012686;28;20438;-26
2022/07/01 01:08:41;;;;;;;5.25;0.80;;;;;;;15.29;100.00;101354.66;5008472;28;20416;-28
2022/07/01 01:11:09;;;;;;;2.58;0.70;;;;;;;15.29;100.00;101363.09;5008995;28;20037;-25
2022/07/01 01:13:37;;;;;;;4.28;0.70;;;;;;;15.29;100.00;101357.47;5012747;28;20050;-28
2022/07/01 01:16:06;;;;;;;4.63;0.57;;;;;;;15.27;100.00;101365.38;5012695;28;20037;-31
2022/07/01 01:18:36;;;;;;;4.13;0.70;;;;;;;15.26;100.00;101358.09;5012205;28;20171;-29
2022/07/01 01:21:06;;;;;;;3.90;0.75;;;;;;;15.26;100.00;101357.25;5012237;28;20060;-32
2022/07/01 01:23:34;;;;;;;5.28;0.82;;;;;;;15.27;100.00;101375.78;5012720;28;20060;-32
2022/07/01 01:26:02;;;;;;;6.25;0.98;;;;;;;15.27;100.00;101375.78;5011233;28;20355;-34
2022/07/01 01:28:30;;;;;;;4.75;0.70;;;;;;;15.27;100.00;101381.41;5001300;28;20041;-27
2022/07/01 01:30:58;;;;;;;3.60;0.80;;;;;;;15.27;100.00;101373.81;5011232;28;20053;-33
2022/07/01 01:33:26;;;;;;;5.25;0.80;;;;;;;15.23;100.00;101384.03;5012638;28;20077;-30
2022/07/01 01:35:53;;;;;;;5.07;1.10;;;;;;;15.24;100.00;101382.88;5012299;28;20517;-32
2022/07/01 01:38:23;;;;;;;5.30;1.00;;;;;;;15.26;100.00;101382.56;5011682;28;20073;-29
2022/07/01 01:40:50;;;;;;;3.45;0.70;;;;;;;15.23;100.00;101372.78;5012158;28;20041;-32
2022/07/01 01:43:18;;;;;;;3.15;0.60;;;;;;;15.23;100.00;101369.13;5012353;28;20053;-29
2022/07/01 01:45:46;;;;;;;4.63;0.82;;;;;;;15.24;100.00;101371.63;5011740;28;20422;-28
2022/07/01 01:48:14;;;;;;;3.50;0.80;;;;;;;15.24;100.00;101368.81;5011848;28;20127;-31
2022/07/01 01:50:41;;;;;;;4.97;1.10;;;;;;;15.22;100.00;101368.31;5012390;28;20402;-29
2022/07/01 01:53:10;;;;;;;4.45;0.70;;;;;;;15.20;100.00;101373.41;5011100;28;20176;-32
2022/07/01 01:55:39;;;;;;;5.38;0.68;;;;;;;15.18;100.00;101372.09;5011944;28;20675;-27
2022/07/01 01:58:07;;;;;;;3.00;0.70;;;;;;;15.13;100.00;101382.31;5010926;28;21004;-30
2022/07/01 02:00:35;;;;;;;3.92;0.70;;;;;;;15.14;100.00;101398.03;5011597;28;20080;-31
2022/07/01 02:03:03;;;;;;;5.55;0.88;;;;;;;15.13;100.00;101390.75;5010643;28;20038;-28
2022/07/01 02:05:31;;;;;;;3.17;0.80;;;;;;;15.15;100.00;101404.47;5011698;28;20081;-26
2022/07/01 02:07:59;;;;;;;3.47;0.70;;;;;;;15.18;100.00;101398.22;5010835;28;20046;-27
2022/07/01 02:10:27;;;;;;;3.03;0.63;;;;;;;15.18;100.00;101400.22;5012229;28;20103;-26
2022/07/01 02:12:57;;;;;;;5.53;0.85;;;;;;;15.21;100.00;101408.81;5011713;28;20060;-30
2022/07/01 02:15:25;;;;;;;3.85;0.82;;;;;;;15.19;100.00;101411.09;5011286;28;20499;-26
2022/07/01 02:17:53;;;;;;;4.25;0.80;;;;;;;15.19;100.00;101421.56;5011602;28;20384;-27
2022/07/01 02:20:20;;;;;;;5.20;0.98;;;;;;;15.14;100.00;101417.69;5011061;28;20492;-26
2022/07/01 02:22:49;;;;;;;4.07;0.82;;;;;;;15.13;100.00;101421.66;5011433;28;20458;-29
2022/07/01 02:25:17;;;;;;;5.53;1.05;;;;;;;15.13;100.00;101424.47;5011388;28;20498;-28
2022/07/01 02:27:45;;;;;;;4.35;0.90;;;;;;;15.15;100.00;101415.72;5010795;28;20054;-33
2022/07/01 02:30:14;;;;;;;7.00;1.10;;;;;;;15.13;100.00;101416.03;5011855;28;20054;-31
2022/07/01 02:32:42;;;;;;;5.03;1.17;;;;;;;15.14;100.00;101414.06;5011530;28;20052;-29
2022/07/01 02:35:11;;;;;;;5.90;1.00;;;;;;;15.19;100.00;101413.91;5011228;28;20041;-26
2022/07/01 02:37:38;;;;;;;4.53;1.00;;;;;;;15.22;100.00;101412.47;5011841;28;20046;-33
2022/07/01 02:40:07;;;;;;;8.45;1.73;;;;;;;15.21;100.00;101419.22;5010837;28;20050;-30
2022/07/01 02:42:36;;;;;;;5.53;1.05;;;;;;;15.19;100.00;101425.16;5014814;28;20056;-33
2022/07/01 02:45:06;;;;;;;8.98;1.35;;;;;;;15.17;100.00;101433.13;5015339;28;20137;-29
2022/07/01 02:47:37;;;;;;;5.90;0.93;;;;;;;15.21;100.00;101434.13;5015838;28;20098;-33
2022/07/01 02:50:06;;;;;;;5.07;0.90;;;;;;;15.22;100.00;101426.50;5014474;28;20484;-25
2022/07/01 02:52:35;;;;;;;7.05;1.15;;;;;;;15.21;100.00;101428.50;5015463;28;20052;-34
2022/07/01 02:55:03;;;;;;;5.10;1.00;;;;;;;15.22;100.00;101432.13;5015390;28;20048;-35
2022/07/01 02:57:31;;;;;;;5.18;1.05;;;;;;;15.23;100.00;101431.81;5014627;28;20046;-29
2022/07/01 02:59:59;;;;;;;6.82;0.98;;;;;;;15.25;100.00;101434.31;5014752;28;20045;-34
2022/07/01 03:02:28;;;;;;;4.13;1.00;;;;;;;15.30;100.00;101426.59;5014532;28;20121;-30
2022/07/01 03:04:57;;;;;;;7.75;1.30;;;;;;;15.30;100.00;101428.59;5014869;28;20041;-29
2022/07/01 03:07:25;;;;;;;7.18;1.20;;;;;;;15.25;100.00;101421.09;5015226;28;20104;-32
2022/07/01 03:09:53;;;;;;;9.30;1.35;;;;;;;15.26;100.00;101430.38;5013897;28;20462;-29
2022/07/01 03:12:28;;;;;;;5.78;1.38;;;;;;;15.27;100.00;101426.41;5014574;28;20413;-31
2022/07/01 03:14:57;;;;;;;5.32;1.30;;;;;;;15.22;100.00;101421.72;5014700;28;20042;-29
2022/07/01 03:17:25;;;;;;;8.02;1.38;;;;;;;15.19;100.00;101413.13;5014144;28;20042;-31
2022/07/01 03:19:54;;;;;;;5.50;1.17;;;;;;;15.17;100.00;101421.88;5014060;28;20415;-30
2022/07/01 03:22:24;;;;;;;7.00;1.45;;;;;;;15.21;100.00;101425.69;5013189;28;20065;-28
2022/07/01 03:24:53;;;;;;;7.18;1.30;;;;;;;15.19;100.00;101425.16;5011399;28;20050;-30
2022/07/01 03:27:22;;;;;;;8.57;1.27;;;;;;;15.18;100.00;101426.34;5012698;28;20054;-34
2022/07/01 03:29:50;;;;;;;9.75;1.52;;;;;;;15.19;100.00;101439.22;5012246;28;20053;-27
2022/07/01 03:32:19;;;;;;;10.10;1.50;;;;;;;15.22;100.00;101443.38;5011940;28;20129;-34
2022/07/01 03:34:49;;;;;;;9.48;1.52;;;;;;;15.26;100.00;101433.19;5012716;28;20486;-31
2022/07/01 03:37:18;;;;;;;7.75;1.27;;;;;;;15.28;100.00;101428.06;5011794;28;20689;-27
2022/07/01 03:39:48;;;;;;;6.00;1.48;;;;;;;15.29;100.00;101401.63;5013255;28;20056;-32
2022/07/01 03:42:16;;;;;;;10.63;1.80;;;;;;;15.30;100.00;101404.13;5014238;28;20038;-31
2022/07/01 03:44:44;;;;;;;8.45;1.80;;;;;;;15.33;100.00;101400.66;5013647;28;20053;-29
2022/07/01 03:47:12;;;;;;;6.70;1.38;;;;;;;15.35;100.00;101404.00;5013997;28;20057;-35
2022/07/01 03:49:40;;;;;;;8.45;1.45;;;;;;;15.35;100.00;101395.56;5014027;28;20061;-30
2022/07/01 03:52:08;;;;;;;7.32;1.50;;;;;;;15.37;100.00;101407.31;5012210;28;20052;-30
2022/07/01 03:54:38;;;;;;;10.18;1.85;;;;;;;15.39;100.00;101416.25;5014236;28;20046;-35
2022/07/01 03:57:10;;;;;;;9.20;1.60;;;;;;;15.39;100.00;101413.44;5013565;28;20399;-29
2022/07/01 03:59:38;;;;;;;7.88;1.40;;;;;;;15.38;100.00;101416.59;5013638;28;20445;-28
2022/07/01 04:02:07;;;;;;;7.93;1.38;;;;;;;15.39;100.00;101418.22;5013755;28;20045;-35
2022/07/01 04:04:36;;;;;;;6.18;1.35;;;;;;;15.39;100.00;101404.16;5013993;28;20071;-30
2022/07/01 04:07:06;;;;;;;8.50;1.40;;;;;;;15.40;100.00;101400.22;5013022;28;20042;-27
2022/07/01 04:09:35;;;;;;;5.97;1.27;;;;;;;15.43;100.00;101422.06;5014396;28;20057;-29
2022/07/01 04:12:07;;;;;;;5.90;1.10;;;;;;;15.41;100.00;101416.75;5013348;28;20046;-30
2022/07/01 04:14:36;;;;;;;;;;;;;;;15.38;100.00;101417.44;5013795;28;20046;-36
2022/07/01 04:17:04;;;;;;;7.97;1.58;;;;;;;15.34;100.00;101426.81;5013411;28;19929;-30
2022/07/01 04:19:32;;;;;;;5.22;1.38;;;;;;;15.37;100.00;101417.75;5013953;28;20042;-29
2022/07/01 04:24:46;;;;;;;8.57;1.45;;;;;;;15.37;100.00;101429.81;5013758;28;20145;-29
2022/07/01 04:27:13;;;;;;;9.75;1.40;;;;;;;15.40;100.00;101443.22;5012397;28;20046;-33
2022/07/01 04:29:42;;;;;;;5.47;1.15;;;;;;;15.44;100.00;101443.44;5013566;28;20060;-27
2022/07/01 04:32:10;;;;;;;5.40;1.05;;;;;;;15.47;100.00;101454.03;5013184;28;20045;-33
2022/07/01 04:34:38;;;;;;;5.35;1.08;;;;;;;15.49;100.00;101457.38;5012902;28;20495;-33
2022/07/01 04:37:06;;;;;;;8.40;1.55;;;;;;;15.52;100.00;101454.75;5013276;28;20108;-31
2022/07/01 04:39:34;;;;;;;5.60;1.00;;;;;;;15.60;100.00;101469.22;5013460;28;20057;-38
2022/07/01 04:42:02;;;;;;;4.47;1.23;;;;;;;15.64;100.00;101470.25;5012333;28;20052;-26
2022/07/01 04:44:32;;;;;;;5.60;1.00;;;;;;;15.67;100.00;101461.19;5013506;28;20053;-31
2022/07/01 04:47:02;;;;;;;11.15;1.63;;;;;;;15.71;100.00;101462.22;5013062;28;20052;-30
2022/07/01 04:49:30;;;;;;;5.88;1.33;;;;;;;15.77;100.00;101458.13;5012207;28;20463;-29
2022/07/01 04:51:59;;;;;;;7.05;1.33;;;;;;;15.82;100.00;101455.19;5012635;28;20046;-31
2022/07/01 04:54:27;;;;;;;7.65;1.10;;;;;;;15.89;100.00;101457.56;5009710;28;20383;-32
2022/07/01 04:56:55;;;;;;;6.50;1.40;;;;;;;15.91;100.00;101461.72;5012613;28;20054;-33
2022/07/01 04:59:23;;;;;;;9.50;1.45;;;;;;;15.93;100.00;101456.59;5012857;28;20046;-27
2022/07/01 05:01:51;;;;;;;5.13;1.20;;;;;;;15.95;100.00;101459.09;5010683;28;20049;-28
2022/07/01 05:04:20;;;;;;;8.43;1.02;;;;;;;15.98;100.00;101475.34;5011226;28;20050;-28
2022/07/01 05:06:48;;;;;;;7.13;1.10;;;;;;;15.95;100.00;101488.06;5012108;28;20103;-27
2022/07/01 05:09:16;;;;;;;7.68;1.20;;;;;;;15.98;100.00;101476.19;5010374;28;20046;-28
2022/07/01 05:11:43;;;;;;;4.45;1.38;;;;;;;15.97;100.00;101477.31;5012012;28;20136;-28
2022/07/01 05:14:11;;;;;;;6.75;1.20;;;;;;;15.97;100.00;101480.16;5011222;28;20495;-27
2022/07/01 05:16:39;;;;;;;6.35;1.20;;;;;;;15.99;100.00;101477.81;5011101;28;20144;-28
2022/07/01 05:21:57;;;;;;;7.72;1.25;;;;;;;15.99;100.00;101476.97;5010597;28;20045;-28
2022/07/01 05:24:25;;;;;;;;;;;;;;;15.93;100.00;101479.13;5009625;28;20064;-36
2022/07/01 05:26:53;;;;;;;5.35;1.45;;;;;;;15.93;100.00;101479.13;5011484;28;20024;-34
2022/07/01 05:29:20;;;;;;;6.00;1.00;;;;;;;16.01;100.00;101485.94;5011209;28;20076;-29
2022/07/01 05:31:49;;;;;;;5.90;1.40;;;;;;;16.05;100.00;101489.78;5010851;28;20061;-29
2022/07/01 05:34:17;;;;;;;7.15;1.13;;;;;;;16.12;100.00;101488.19;5011148;28;20855;-34
2022/07/01 05:36:44;;;;;;;7.72;1.00;;;;;;;16.19;100.00;101494.19;5000507;28;20124;-29
2022/07/01 05:39:13;;;;;;;5.18;1.23;;;;;;;16.30;100.00;101493.91;5004192;28;20038;-32
2022/07/01 05:41:41;;;;;;;5.97;1.10;;;;;;;16.37;100.00;101499.94;5011162;28;20058;-29
2022/07/01 05:44:09;;;;;;;4.75;1.08;;;;;;;16.38;100.00;101494.00;5010280;28;20057;-36
2022/07/01 05:46:37;;;;;;;6.20;1.30;;;;;;;16.40;100.00;101493.63;5011235;28;20130;-29
2022/07/01 05:49:05;;;;;;;6.22;0.88;;;;;;;16.40;100.00;101502.91;5010712;28;20050;-32
2022/07/01 05:51:33;;;;;;;6.53;1.08;;;;;;;16.38;100.00;101512.88;5010495;28;20053;-27
2022/07/01 05:54:01;;;;;;;5.63;1.20;;;;;;;16.36;100.00;101504.75;5011025;28;20053;-28
2022/07/01 05:56:31;;;;;;;5.93;1.15;;;;;;;16.37;100.00;101506.41;5011063;28;20050;-27
2022/07/01 05:58:59;;;;;;;5.88;0.93;;;;;;;16.37;100.00;101499.94;5010312;28;20123;-26
2022/07/01 06:01:27;;;;;;;5.30;0.98;;;;;;;16.35;100.00;101503.06;5010471;28;20046;-27
2022/07/01 06:03:55;;;;;;;6.88;0.90;;;;;;;16.36;100.00;101504.75;5010775;28;20060;-26
2022/07/01 06:06:23;;;;;;;5.10;0.90;;;;;;;16.40;100.00;101499.28;5009283;28;20061;-31
2022/07/01 06:08:51;;;;;;;6.07;0.98;;;;;;;16.42;100.00;101491.31;5011293;28;20573;-27
2022/07/01 06:11:18;;;;;;;6.55;1.00;;;;;;;16.43;100.00;101498.63;5010681;28;20044;-29
2022/07/01 06:13:48;;;;;;;5.35;1.00;;;;;;;16.41;100.00;101498.94;5009945;28;20120;-31
2022/07/01 06:16:15;;;;;;;5.22;0.90;;;;;;;16.45;100.00;101499.13;5010190;28;20061;-31
2022/07/01 06:18:43;;;;;;;4.68;0.90;;;;;;;16.54;100.00;101497.22;5011226;28;20042;-26
2022/07/01 06:21:11;;;;;;;4.80;1.02;;;;;;;16.64;100.00;101491.31;5008570;28;20069;-27
2022/07/01 06:23:39;;;;;;;7.10;1.05;;;;;;;16.82;100.00;101489.38;5010954;28;20054;-27
2022/07/01 06:26:07;;;;;;;5.65;0.95;;;;;;;16.95;100.00;101499.72;5010207;28;20050;-26
2022/07/01 06:28:35;;;;;;;4.22;1.00;;;;;;;16.95;100.00;101499.72;5010401;28;20085;-26
2022/07/01 06:31:04;;;;;;;4.65;1.38;;;;;;;16.99;100.00;101495.06;5010388;28;20073;-27
2022/07/01 06:33:32;;;;;;;3.95;0.75;;;;;;;16.94;100.00;101492.44;5010074;28;20050;-28
2022/07/01 06:36:00;;;;;;;6.20;0.85;;;;;;;16.98;100.00;101492.63;5010365;28;20045;-27
2022/07/01 06:38:29;;;;;;;3.25;0.73;;;;;;;17.06;100.00;101489.81;5010761;28;20060;-26
2022/07/01 06:43:43;;;;;;;4.57;0.80;;;;;;;17.48;100.00;101495.84;5010994;28;20060;-26
2022/07/01 06:46:12;;;;;;;3.97;0.80;;;;;;;17.75;100.00;101494.75;5010461;28;20057;-28
2022/07/01 06:48:40;;;;;;;3.15;0.60;;;;;;;17.96;100.00;101509.84;5009675;28;20548;-27
2022/07/01 06:51:08;;;;;;;6.18;0.63;;;;;;;18.00;100.00;101510.81;5009790;28;20138;-27
2022/07/01 06:53:36;;;;;;;3.22;0.50;;;;;;;18.15;100.00;101506.69;5010393;28;20046;-34
2022/07/01 06:56:04;;;;;;;4.05;0.60;;;;;;;18.52;100.00;101507.91;5009713;28;20050;-33
2022/07/01 06:58:32;;;;;;;5.13;0.90;;;;;;;18.73;99.25;101508.88;5010282;28;20479;-32
2022/07/01 07:01:00;;;;;;;1.92;0.50;;;;;;;18.87;98.35;101508.63;4997784;28;20050;-26
2022/07/01 07:03:29;;;;;;;3.55;0.65;;;;;;;19.05;96.88;101498.06;5008245;28;20472;-28
2022/07/01 07:05:59;;;;;;;4.18;0.70;;;;;;;19.29;95.78;101501.09;5010671;28;20042;-26
2022/07/01 07:08:27;;;;;;;5.13;0.90;;;;;;;19.47;93.81;101494.13;5008832;28;20085;-31
2022/07/01 07:10:54;;;;;;;3.92;0.63;;;;;;;19.76;94.25;101498.13;5004630;28;20514;-28
2022/07/01 07:13:22;;;;;;;3.03;0.50;;;;;;;19.94;93.00;101494.78;5008436;28;20081;-26
2022/07/01 07:15:50;;;;;;;4.13;0.80;;;;;;;20.18;93.30;101510.25;5004370;28;20168;-36
2022/07/01 07:18:19;;;;;;;4.10;0.80;;;;;;;20.38;89.12;101511.41;5009050;28;20049;-29
2022/07/01 07:20:48;;;;;;;3.17;0.82;;;;;;;20.53;86.98;101520.06;5011161;28;20133;-34
2022/07/01 07:23:16;;;;;;;2.78;0.60;;;;;;;20.67;84.37;101530.25;5009019;28;20077;-33
2022/07/01 07:25:44;;;;;;;2.53;0.60;;;;;;;20.87;83.18;101510.28;5009931;28;20419;-26
2022/07/01 07:28:12;;;;;;;3.75;0.70;;;;;;;21.15;82.46;101520.97;5012279;28;20046;-30
2022/07/01 07:30:40;;;;;;;4.05;0.75;;;;;;;21.30;81.71;101525.94;5013557;28;20050;-26
2022/07/01 07:33:08;;;;;;;4.32;0.90;;;;;;;21.49;81.39;101523.31;5014235;28;20137;-34
2022/07/01 07:35:36;;;;;;;3.92;0.70;;;;;;;21.62;80.18;101536.31;5014684;28;20060;-30
2022/07/01 07:38:07;;;;;;;4.07;1.00;;;;;;;21.63;79.02;101539.97;5013424;28;20050;-30
2022/07/01 07:40:35;;;;;;;6.22;0.75;;;;;;;21.65;79.58;101538.44;5014176;28;20056;-36
2022/07/01 07:43:05;;;;;;;3.65;0.80;;;;;;;21.64;78.90;101541.63;5014014;28;20141;-31
2022/07/01 07:45:33;;;;;;;4.85;0.80;;;;;;;21.74;77.30;101544.00;5013775;28;20481;-27
2022/07/01 07:48:02;;;;;;;3.03;0.73;;;;;;;21.75;76.20;101544.81;5014268;28;20054;-28
2022/07/01 07:50:31;;;;;;;2.88;0.70;;;;;;;21.77;76.99;101545.28;5013440;28;20392;-29
2022/07/01 07:52:59;;;;;;;4.80;0.88;;;;;;;22.07;77.56;101546.66;5013173;28;20038;-31
2022/07/01 07:55:28;;;;;;;3.40;0.75;;;;;;;22.38;75.81;101547.94;5013928;28;20135;-34
2022/07/01 07:57:56;;;;;;;3.00;0.80;;;;;;;22.51;74.27;101552.38;5013074;28;20049;-32
2022/07/01 08:00:24;;;;;;;4.28;0.90;;;;;;;22.56;72.83;101561.50;5013683;28;20050;-25
2022/07/01 08:02:52;;;;;;;3.42;0.88;;;;;;;22.58;72.84;101558.28;5013308;28;20054;-33
2022/07/01 08:05:19;;;;;;;3.50;0.80;;;;;;;22.80;72.37;101566.22;5006668;28;20529;-30
2022/07/01 08:07:47;;;;;;;2.63;0.70;;;;;;;23.14;70.54;101564.69;5013046;28;20490;-35
2022/07/01 08:10:15;;;;;;;3.65;0.70;;;;;;;23.07;68.16;101570.19;5013203;28;20053;-32
2022/07/01 08:12:44;;;;;;;4.40;0.90;;;;;;;22.96;68.30;101581.31;5012693;28;20491;-30
2022/07/01 08:15:12;;;;;;;2.65;0.80;;;;;;;22.88;69.58;101573.75;5013207;28;20081;-32
2022/07/01 08:17:40;;;;;;;3.70;0.75;;;;;;;22.98;69.55;101555.31;5013634;28;20073;-29
2022/07/01 08:20:09;;;;;;;2.72;0.70;;;;;;;22.98;70.57;101566.72;5012327;28;20057;-32
2022/07/01 08:22:37;;;;;;;3.28;0.85;;;;;;;22.84;70.47;101561.44;5013397;28;20056;-37
2022/07/01 08:25:05;;;;;;;2.70;0.90;;;;;;;22.77;70.33;101572.66;5012674;28;20494;-30
2022/07/01 08:27:33;;;;;;;3.17;0.80;;;;;;;22.41;70.02;101576.47;5012852;28;20073;-29
2022/07/01 08:30:03;;;;;;;4.05;0.70;;;;;;;22.20;70.34;101581.53;5013040;28;20042;-33
2022/07/01 08:32:31;;;;;;;2.28;0.80;;;;;;;22.39;70.69;101583.69;5012024;28;20396;-34
2022/07/01 08:35:00;;;;;;;3.22;0.95;;;;;;;22.58;70.10;101586.72;5010738;28;20595;-31
2022/07/01 08:37:28;;;;;;;5.15;1.00;;;;;;;22.85;68.99;101600.09;5013171;28;20049;-31
2022/07/01 08:39:56;;;;;;;4.18;1.00;;;;;;;23.03;67.19;101594.88;5012035;28;20145;-36
2022/07/01 08:42:24;;;;;;;3.55;1.00;;;;;;;22.66;66.94;101606.47;5012273;28;20053;-29
2022/07/01 08:44:52;;;;;;;3.05;0.70;;;;;;;22.18;67.94;101607.47;5012979;28;20048;-30
2022/07/01 08:47:21;;;;;;;4.20;0.90;;;;;;;21.96;68.56;101611.69;5011100;28;20132;-29
2022/07/01 08:49:49;;;;;;;2.90;0.60;;;;;;;22.07;71.03;101620.53;5012670;28;20085;-29
2022/07/01 08:52:17;;;;;;;2.60;0.73;;;;;;;22.31;69.34;101616.81;5012566;28;20046;-30
2022/07/01 08:54:45;;;;;;;2.58;0.60;;;;;;;22.51;68.70;101612.13;5011503;28;20073;-29
2022/07/01 08:57:13;;;;;;;3.30;0.85;;;;;;;22.75;68.67;101620.53;5009279;28;20046;-31
2022/07/01 08:59:41;;;;;;;2.63;0.75;;;;;;;22.89;67.79;101626.66;5012712;28;20085;-29
2022/07/01 09:02:08;;;;;;;2.60;0.65;;;;;;;23.10;68.27;101634.13;5010526;28;20042;-30
2022/07/01 09:04:38;;;;;;;3.90;0.68;;;;;;;23.11;67.40;101628.06;5006072;28;20646;-29
2022/07/01 09:07:08;;;;;;;3.13;1.00;;;;;;;23.06;67.89;101639.72;5010013;28;20554;-33
2022/07/01 09:09:37;;;;;;;2.90;0.70;;;;;;;23.12;66.54;101641.09;5011969;28;20057;-32
2022/07/01 09:12:06;;;;;;;2.35;0.70;;;;;;;23.22;64.99;101651.09;5012138;28;20046;-29
2022/07/01 09:14:35;;;;;;;2.63;0.70;;;;;;;23.26;64.35;101646.34;5012310;28;20115;-31
2022/07/01 09:17:05;;;;;;;3.72;0.70;;;;;;;23.41;63.64;101636.97;5011337;28;20050;-30
2022/07/01 09:19:36;;;;;;;3.05;0.70;;;;;;;23.64;63.03;101634.31;5012517;28;20042;-30
2022/07/01 09:22:10;;;;;;;3.25;0.73;;;;;;;23.46;62.22;101641.56;5011468;28;20072;-35
2022/07/01 09:24:41;;;;;;;3.58;0.77;;;;;;;23.09;62.73;101639.00;5012264;28;20052;-29
2022/07/01 09:27:13;;;;;;;3.53;0.70;;;;;;;23.05;64.85;101643.75;5010712;28;20491;-29
2022/07/01 09:29:42;;;;;;;2.40;0.73;;;;;;;23.45;64.61;101646.44;5011831;28;20058;-29
2022/07/01 09:32:13;;;;;;;3.28;0.70;;;;;;;23.71;62.45;101640.22;5012046;28;20138;-32
2022/07/01 09:34:43;;;;;;;3.47;0.68;;;;;;;23.47;61.29;101658.28;4992850;28;20129;-29
2022/07/01 09:37:15;;;;;;;5.50;1.10;;;;;;;22.87;62.29;101657.50;5001772;28;20054;-33
2022/07/01 09:39:44;;;;;;;3.70;1.02;;;;;;;22.71;64.77;101658.63;5012155;28;20482;-31
2022/07/01 09:42:13;;;;;;;3.35;0.70;;;;;;;22.60;65.32;101650.59;5011921;28;20077;-30
2022/07/01 09:44:54;;;;;;;5.20;0.80;;;;;;;23.17;62.03;101651.41;5011369;28;20074;-31
2022/07/01 09:47:30;;;;;;;4.05;0.70;;;;;;;23.26;60.72;101652.03;5011854;28;20046;-34
2022/07/01 09:49:58;;;;;;;3.88;0.60;;;;;;;23.26;58.94;101663.44;5011005;28;20163;-33
2022/07/01 09:52:28;;;;;;;2.88;0.50;;;;;;;23.31;59.55;101648.94;5010760;28;20503;-31
2022/07/01 09:55:05;;;;;;;2.30;0.47;;;;;;;23.34;60.80;101654.72;5011847;28;20046;-29
2022/07/01 09:57:32;;;;;;;3.63;0.70;;;;;;;23.46;61.83;101653.78;5010954;28;20041;-35
2022/07/01 10:00:00;;;;;;;3.17;0.68;;;;;;;23.66;58.41;101655.56;5011853;28;20049;-29
2022/07/01 10:02:34;;;;;;;1.98;0.60;;;;;;;23.69;57.38;101649.13;5011766;28;20425;-29
2022/07/01 10:05:07;;;;;;;3.53;0.60;;;;;;;23.51;56.45;101655.53;5009307;28;20049;-29
2022/07/01 10:07:48;;;;;;;3.72;0.80;;;;;;;23.66;57.70;101661.25;5011711;28;20138;-34
2022/07/01 10:10:31;;;;;;;2.85;0.85;;;;;;;23.95;56.29;101662.78;5011796;28;20128;-29
2022/07/01 10:13:02;;;;;;;4.40;0.88;;;;;;;24.22;55.13;101665.84;5010774;28;20052;-32
2022/07/01 10:15:31;;;;;;;3.30;0.93;;;;;;;24.09;55.92;101670.03;5010815;28;20053;-34
2022/07/01 10:17:59;;;;;;;3.42;0.60;;;;;;;24.01;53.81;101677.56;5011736;28;20406;-32
2022/07/01 10:20:29;;;;;;;3.25;0.60;;;;;;;24.16;53.75;101664.50;5010940;28;20407;-38
2022/07/01 10:23:06;;;;;;;3.85;0.82;;;;;;;24.13;49.51;101680.31;5011541;28;20490;-38
2022/07/01 10:25:45;;;;;;;4.22;1.00;;;;;;;23.83;50.48;101668.59;5009078;28;20817;-32
2022/07/01 10:28:23;;;;;;;5.00;0.93;;;;;;;23.87;54.12;101683.75;5011699;28;20050;-32
2022/07/01 10:30:53;;;;;;;5.03;0.90;;;;;;;24.04;54.00;101674.81;5010829;28;20515;-30
2022/07/01 10:33:35;;;;;;;5.35;1.00;;;;;;;24.23;51.85;101688.28;5010427;28;20132;-30
2022/07/01 10:36:08;;;;;;;6.20;1.20;;;;;;;24.19;52.53;101681.66;5010941;28;20042;-30
2022/07/01 10:39:27;;;;;;;4.90;0.90;;;;;;;24.22;53.19;101678.06;5011399;28;20034;-31
2022/07/01 10:42:05;;;;;;;3.30;0.70;;;;;;;24.20;54.02;101673.94;5002193;28;20521;-30
2022/07/01 10:45:04;;;;;;;5.25;0.88;;;;;;;24.41;50.57;101665.88;5010709;28;20057;-33
2022/07/01 10:47:32;;;;;;;4.30;0.77;;;;;;;24.23;53.24;101685.44;5010713;28;20046;-35
2022/07/01 10:50:04;;;;;;;5.65;0.90;;;;;;;24.12;52.81;101695.78;5010710;28;20486;-29
2022/07/01 10:52:33;;;;;;;5.18;1.00;;;;;;;23.88;54.50;101681.75;5011195;28;20415;-29
2022/07/01 10:55:04;;;;;;;3.35;0.82;;;;;;;23.89;54.66;101697.66;5010142;28;20441;-30
2022/07/01 10:57:35;;;;;;;3.60;0.80;;;;;;;23.89;55.12;101683.41;5000946;28;20050;-30
2022/07/01 11:00:22;;;;;;;;;;;;;;;23.84;53.72;101700.78;5011403;28;20049;-36
2022/07/01 11:02:49;;;;;;;3.13;0.80;;;;;;;23.75;56.33;101700.97;5004223;28;19926;-35
2022/07/01 11:05:18;;;;;;;5.80;1.05;;;;;;;23.58;55.95;101707.06;5014431;28;20069;-32
2022/07/01 11:07:46;;;;;;;6.18;1.02;;;;;;;23.44;57.10;101703.78;5014146;28;20061;-35
2022/07/01 11:10:18;;;;;;;5.30;0.90;;;;;;;23.50;57.81;101700.31;5014597;28;20123;-38
2022/07/01 11:12:48;;;;;;;3.97;1.00;;;;;;;23.73;57.21;101694.00;5014822;28;20470;-37
2022/07/01 11:15:17;;;;;;;5.22;1.10;;;;;;;23.73;54.39;101699.69;5013594;28;20108;-35
2022/07/01 11:17:49;;;;;;;3.90;0.90;;;;;;;23.73;54.58;101694.00;5014407;28;20525;-29
2022/07/01 11:20:17;;;;;;;5.13;0.80;;;;;;;23.84;54.77;101704.44;5014039;28;20052;-33
2022/07/01 11:22:50;;;;;;;4.05;0.80;;;;;;;24.06;54.54;101705.81;5013850;28;20103;-34
2022/07/01 11:25:21;;;;;;;4.38;1.10;;;;;;;23.87;54.69;101711.44;5014378;28;20049;-40
2022/07/01 11:27:51;;;;;;;4.47;0.88;;;;;;;23.90;54.62;101710.72;5014267;28;20068;-35
2022/07/01 11:30:20;;;;;;;6.38;1.20;;;;;;;23.88;56.03;101702.53;5012528;28;20052;-28
2022/07/01 11:32:53;;;;;;;4.78;0.90;;;;;;;23.74;55.16;101707.06;5011639;28;20042;-27
2022/07/01 11:41:02;;;;;;;6.47;1.37;;;;;;;23.38;54.68;101713.81;5013982;28;20128;-27
2022/07/01 11:43:33;;;;;;;6.38;1.30;;;;;;;23.31;55.40;101706.72;5013788;28;20054;-28
2022/07/01 11:46:04;;;;;;;6.72;1.15;;;;;;;23.33;54.99;101710.03;5014096;28;20070;-34